Time;durP1;ratioP1;P1;durP2;ratioP2;P2;SDS_P1;SDS_P2;PMS_P1;PMS_P2;Temp;Humidity;BMP_temperature;BMP_pressure;BME280_temperature;BME280_humidity;BME280_pressure;Samples;Min_cycle;Max_cycle;Signal;HPM_P1;HPM_P2
2023/04/17 00:01:06;;;;;;;4.70;3.90;;;;;7.50;96327.00;;;;5053166;28;20196;-60
2023/04/17 00:03:33;;;;;;;1.93;1.83;;;;;7.50;96324.00;;;;5053242;28;20200;-60
2023/04/17 00:06:00;;;;;;;2.27;2.07;;;;;7.50;96312.00;;;;5079777;22;20238;-64
2023/04/17 00:08:28;;;;;;;3.20;2.90;;;;;7.50;96322.00;;;;5055720;28;20309;-64
2023/04/17 00:10:55;;;;;;;2.53;2.03;;;;;7.50;96316.00;;;;5073358;28;20685;-64
2023/04/17 00:13:22;;;;;;;1.97;1.87;;;;;7.50;96319.00;;;;5055210;28;20196;-64
2023/04/17 00:15:50;;;;;;;2.27;2.07;;;;;7.50;96319.00;;;;5073085;28;20212;-64
2023/04/17 00:18:19;;;;;;;3.63;2.67;;;;;7.50;96316.00;;;;5073381;28;20199;-64
2023/04/17 00:20:46;;;;;;;3.40;3.10;;;;;7.50;96317.00;;;;5073093;28;20192;-64
2023/04/17 00:23:13;;;;;;;3.13;2.77;;;;;7.50;96319.00;;;;5073018;28;20226;-64
2023/04/17 00:25:41;;;;;;;1.87;1.77;;;;;7.50;96307.00;;;;5073000;28;20269;-64
2023/04/17 00:28:08;;;;;;;2.50;2.37;;;;;7.50;96315.00;;;;5073571;28;20642;-64
2023/04/17 00:30:35;;;;;;;3.57;3.27;;;;;7.50;96311.00;;;;5072899;28;20214;-64
2023/04/17 00:33:03;;;;;;;5.07;2.40;;;;;7.50;96312.00;;;;5072969;28;20309;-64
2023/04/17 00:35:31;;;;;;;4.47;2.87;;;;;7.50;96303.00;;;;5073182;28;20227;-64
2023/04/17 00:37:59;;;;;;;1.73;1.63;;;;;7.50;96302.00;;;;5072887;28;20188;-64
2023/04/17 00:40:26;;;;;;;3.53;3.33;;;;;7.50;96309.00;;;;5073181;28;20253;-64
2023/04/17 00:42:59;;;;;;;2.87;2.63;;;;;7.50;96312.00;;;;5073380;28;20210;-63
2023/04/17 00:45:26;;;;;;;1.50;1.43;;;;;7.50;96312.00;;;;5073092;28;20211;-64
2023/04/17 00:47:55;;;;;;;2.90;2.63;;;;;7.50;96303.00;;;;5072855;28;20199;-63
2023/04/17 00:50:22;;;;;;;2.20;2.00;;;;;7.50;96302.00;;;;5072962;28;20619;-63
2023/04/17 00:52:51;;;;;;;2.53;2.37;;;;;7.60;96299.00;;;;5076419;28;20196;-64
2023/04/17 00:55:19;;;;;;;2.37;2.17;;;;;7.60;96300.00;;;;5076669;28;20210;-63
2023/04/17 00:57:48;;;;;;;3.03;2.73;;;;;7.50;96294.00;;;;5076985;28;20190;-64
2023/04/17 01:00:16;;;;;;;3.37;2.37;;;;;7.50;96301.00;;;;5076614;28;20195;-63
2023/04/17 01:02:45;;;;;;;1.50;1.40;;;;;7.50;96302.00;;;;5076801;28;20219;-63
2023/04/17 01:05:12;;;;;;;2.53;2.33;;;;;7.50;96296.00;;;;5076408;28;20223;-63
2023/04/17 01:07:41;;;;;;;4.07;3.53;;;;;7.50;96297.00;;;;5076506;28;20650;-63
2023/04/17 01:10:10;;;;;;;2.03;1.90;;;;;7.50;96294.00;;;;5076846;28;20309;-63
2023/04/17 01:12:38;;;;;;;3.27;2.67;;;;;7.50;96294.00;;;;5076339;28;20199;-64
2023/04/17 01:15:06;;;;;;;2.93;2.63;;;;;7.40;96294.00;;;;5076511;28;20226;-64
2023/04/17 01:17:33;;;;;;;2.90;2.70;;;;;7.60;96300.00;;;;5076535;28;20192;-63
2023/04/17 01:20:00;;;;;;;1.83;1.73;;;;;7.40;96292.00;;;;5076206;28;20210;-63
2023/04/17 01:22:28;;;;;;;2.77;2.57;;;;;7.50;96290.00;;;;5076225;28;20249;-63
2023/04/17 01:24:56;;;;;;;3.80;3.17;;;;;7.40;96284.00;;;;5076121;28;20220;-63
2023/04/17 01:27:24;;;;;;;2.87;2.63;;;;;7.50;96290.00;;;;5076101;28;20195;-63
2023/04/17 01:29:51;;;;;;;3.13;2.90;;;;;7.50;96296.00;;;;5076249;28;20626;-63
2023/04/17 01:32:18;;;;;;;4.03;2.10;;;;;7.50;96299.00;;;;5076595;28;20207;-63
2023/04/17 01:34:46;;;;;;;4.17;2.83;;;;;7.50;96292.00;;;;5075895;28;20211;-64
2023/04/17 01:37:13;;;;;;;3.33;3.03;;;;;7.50;96291.00;;;;5076195;28;20535;-63
2023/04/17 01:39:41;;;;;;;2.73;2.53;;;;;7.50;96298.00;;;;5075870;28;20226;-63
2023/04/17 01:42:09;;;;;;;2.13;2.03;;;;;7.50;96304.00;;;;5076086;28;20199;-63
2023/04/17 01:44:37;;;;;;;3.00;2.67;;;;;7.50;96290.00;;;;5076163;28;20196;-63
2023/04/17 01:47:05;;;;;;;2.30;2.20;;;;;7.50;96296.00;;;;5075931;28;20598;-63
2023/04/17 01:49:32;;;;;;;3.00;2.70;;;;;7.50;96294.00;;;;5076475;28;20203;-63
2023/04/17 01:52:00;;;;;;;2.57;2.47;;;;;7.60;96304.00;;;;5075768;28;20219;-63
2023/04/17 01:54:27;;;;;;;2.57;2.37;;;;;7.50;96296.00;;;;5075815;28;20219;-63
2023/04/17 01:56:55;;;;;;;2.20;2.10;;;;;7.50;96295.00;;;;5075840;28;20542;-63
2023/04/17 01:59:24;;;;;;;2.70;2.50;;;;;7.50;96296.00;;;;5075551;28;20204;-63
2023/04/17 02:01:52;;;;;;;3.00;2.77;;;;;7.50;96296.00;;;;5075823;28;20192;-64
2023/04/17 02:04:19;;;;;;;4.37;2.00;;;;;7.60;96289.00;;;;5074773;28;20253;-63
2023/04/17 02:06:46;;;;;;;2.43;2.33;;;;;7.50;96295.00;;;;5075347;28;20221;-63
2023/04/17 02:09:14;;;;;;;2.63;2.13;;;;;7.50;96298.00;;;;5075339;28;20665;-64
2023/04/17 02:11:41;;;;;;;1.97;1.87;;;;;7.50;96288.00;;;;5075529;28;20208;-63
2023/04/17 02:14:08;;;;;;;2.90;2.50;;;;;7.50;96279.00;;;;5075279;28;20196;-63
2023/04/17 02:16:38;;;;;;;2.73;1.87;;;;;7.50;96277.00;;;;5075232;28;20218;-63
2023/04/17 02:19:06;;;;;;;2.90;2.70;;;;;7.50;96282.00;;;;5075210;28;20195;-63
2023/04/17 02:21:33;;;;;;;2.13;2.03;;;;;7.40;96278.00;;;;5075151;28;20198;-63
2023/04/17 02:24:00;;;;;;;2.73;2.53;;;;;7.40;96275.00;;;;5075350;28;20196;-63
2023/04/17 02:26:28;;;;;;;2.07;1.97;;;;;7.40;96280.00;;;;5075284;28;20620;-63
2023/04/17 02:28:55;;;;;;;2.40;2.20;;;;;7.40;96279.00;;;;5075024;28;20194;-63
2023/04/17 02:31:23;;;;;;;1.87;1.77;;;;;7.40;96273.00;;;;5074861;28;20211;-63
2023/04/17 02:33:51;;;;;;;1.73;1.63;;;;;7.40;96274.00;;;;5075142;28;20282;-64
2023/04/17 02:36:19;;;;;;;3.07;2.87;;;;;7.50;96277.00;;;;5074800;28;20221;-63
2023/04/17 02:38:46;;;;;;;2.70;2.57;;;;;7.50;96277.00;;;;5074684;28;20245;-63
2023/04/17 02:41:13;;;;;;;2.60;2.17;;;;;7.50;96279.00;;;;5074684;28;20215;-63
2023/04/17 02:43:41;;;;;;;3.27;2.27;;;;;7.40;96270.00;;;;5074868;28;20293;-62
2023/04/17 02:46:08;;;;;;;3.57;3.27;;;;;7.40;96273.00;;;;5074538;28;20208;-63
2023/04/17 02:48:35;;;;;;;2.53;2.33;;;;;7.50;96266.00;;;;5074719;28;20558;-63
2023/04/17 02:51:04;;;;;;;2.23;2.13;;;;;7.40;96275.00;;;;5074416;28;20214;-63
2023/04/17 02:53:32;;;;;;;2.23;2.13;;;;;7.30;96278.00;;;;5074421;28;20195;-63
2023/04/17 02:55:59;;;;;;;2.50;2.33;;;;;7.30;96276.00;;;;5074287;28;20207;-62
2023/04/17 02:58:26;;;;;;;2.27;2.07;;;;;7.30;96273.00;;;;5074555;28;20533;-62
2023/04/17 03:01:01;;;;;;;2.20;2.10;;;;;7.30;96275.00;;;;5074264;28;20195;-63
2023/04/17 03:03:29;;;;;;;1.80;1.70;;;;;7.30;96273.00;;;;5074778;28;20656;-63
2023/04/17 03:05:57;;;;;;;3.40;3.10;;;;;7.30;96275.00;;;;5074086;28;20318;-63
2023/04/17 03:08:28;;;;;;;2.87;2.67;;;;;7.30;96275.00;;;;5074397;28;20203;-63
2023/04/17 03:10:56;;;;;;;2.67;2.47;;;;;7.30;96277.00;;;;5074309;28;20537;-63
2023/04/17 03:13:23;;;;;;;2.00;1.90;;;;;7.30;96270.00;;;;5074027;28;20241;-63
2023/04/17 03:15:50;;;;;;;5.43;2.67;;;;;7.40;96283.00;;;;5074374;28;20268;-63
2023/04/17 03:18:18;;;;;;;2.57;2.47;;;;;7.40;96284.00;;;;5074212;28;20552;-63
2023/04/17 03:20:45;;;;;;;2.20;2.10;;;;;7.40;96285.00;;;;5074186;28;20550;-63
2023/04/17 03:23:12;;;;;;;2.93;2.73;;;;;7.30;96282.00;;;;5073835;28;20654;-63
2023/04/17 03:25:41;;;;;;;2.27;2.17;;;;;7.40;96278.00;;;;5074017;28;20265;-62
2023/04/17 03:28:08;;;;;;;4.53;3.40;;;;;7.50;96289.00;;;;5073980;28;20550;-63
2023/04/17 03:30:36;;;;;;;1.63;1.53;;;;;7.50;96282.00;;;;5073590;28;20218;-63
2023/04/17 03:33:03;;;;;;;2.00;1.90;;;;;7.60;96275.00;;;;5073611;28;20195;-63
2023/04/17 03:35:31;;;;;;;2.27;2.10;;;;;7.50;96277.00;;;;5073587;28;20215;-63
2023/04/17 03:37:58;;;;;;;1.70;1.60;;;;;7.50;96282.00;;;;5073788;28;20614;-63
2023/04/17 03:40:25;;;;;;;5.70;2.47;;;;;7.40;96277.00;;;;5073814;28;20199;-63
2023/04/17 03:42:54;;;;;;;3.27;2.93;;;;;7.40;96278.00;;;;5073989;28;20202;-62
2023/04/17 03:45:21;;;;;;;2.40;2.30;;;;;7.40;96290.00;;;;5073731;28;20218;-63
2023/04/17 03:47:49;;;;;;;2.83;2.57;;;;;7.40;96284.00;;;;5073674;28;20720;-62
2023/04/17 03:50:16;;;;;;;3.03;2.13;;;;;7.40;96291.00;;;;5073290;28;20666;-63
2023/04/17 03:52:43;;;;;;;2.73;2.57;;;;;7.40;96288.00;;;;5073389;28;20199;-63
2023/04/17 03:55:11;;;;;;;2.27;2.17;;;;;7.50;96289.00;;;;5073264;28;20698;-63
2023/04/17 03:57:39;;;;;;;3.50;3.30;;;;;7.40;96288.00;;;;5073414;28;20188;-63
2023/04/17 04:00:10;;;;;;;2.17;2.07;;;;;7.40;96286.00;;;;5055367;28;20199;-63
2023/04/17 04:02:38;;;;;;;5.57;2.80;;;;;7.40;96291.00;;;;5073244;28;20201;-63
2023/04/17 04:05:06;;;;;;;1.70;1.60;;;;;7.40;96295.00;;;;5073051;28;20725;-62
2023/04/17 04:07:33;;;;;;;2.77;2.57;;;;;7.40;96292.00;;;;5073158;28;20662;-63
2023/04/17 04:10:01;;;;;;;3.17;2.90;;;;;7.30;96295.00;;;;5055243;28;20199;-63
2023/04/17 04:12:28;;;;;;;3.17;3.07;;;;;7.30;96295.00;;;;5073048;28;20221;-63
2023/04/17 04:14:55;;;;;;;4.60;2.77;;;;;7.30;96302.00;;;;5073032;28;20264;-63
2023/04/17 04:17:24;;;;;;;1.67;1.57;;;;;7.30;96293.00;;;;5073065;28;20214;-63
2023/04/17 04:19:52;;;;;;;3.20;2.60;;;;;7.50;96300.00;;;;5073027;28;20191;-63
2023/04/17 04:22:20;;;;;;;4.00;2.57;;;;;7.40;96297.00;;;;5073156;28;20267;-63
2023/04/17 04:24:47;;;;;;;6.43;2.43;;;;;7.30;96296.00;;;;5072904;28;20723;-63
2023/04/17 04:27:16;;;;;;;3.57;3.07;;;;;7.20;96295.00;;;;5072641;28;20210;-62
2023/04/17 04:29:47;;;;;;;3.47;2.13;;;;;7.20;96300.00;;;;5072884;28;20249;-62
2023/04/17 04:32:15;;;;;;;3.63;3.30;;;;;7.40;96305.00;;;;5073114;28;20204;-62
2023/04/17 04:34:44;;;;;;;4.10;3.10;;;;;7.30;96299.00;;;;5072795;28;20191;-62
2023/04/17 04:37:14;;;;;;;3.17;2.87;;;;;7.30;96307.00;;;;5072843;28;20187;-64
2023/04/17 04:39:42;;;;;;;2.93;2.60;;;;;7.30;96295.00;;;;5054959;28;20196;-63
2023/04/17 04:42:09;;;;;;;6.10;2.93;;;;;7.30;96306.00;;;;5073372;28;20362;-64
2023/04/17 04:44:37;;;;;;;3.07;2.77;;;;;7.30;96314.00;;;;5072787;28;20275;-64
2023/04/17 04:47:04;;;;;;;1.90;1.80;;;;;7.30;96302.00;;;;5072855;28;20188;-63
2023/04/17 04:49:31;;;;;;;2.20;2.00;;;;;7.30;96298.00;;;;5073082;28;20195;-63
2023/04/17 04:52:00;;;;;;;5.10;2.27;;;;;7.30;96300.00;;;;5072610;28;20211;-63
2023/04/17 04:54:27;;;;;;;2.70;2.50;;;;;7.30;96304.00;;;;5072619;28;20202;-63
2023/04/17 04:56:55;;;;;;;8.67;3.67;;;;;7.30;96310.00;;;;5072652;28;20195;-63
2023/04/17 04:59:23;;;;;;;2.30;2.20;;;;;7.30;96312.00;;;;5072904;28;20636;-63
2023/04/17 05:01:50;;;;;;;2.70;2.50;;;;;7.30;96309.00;;;;5072597;28;20196;-63
2023/04/17 05:04:18;;;;;;;3.77;3.43;;;;;7.30;96314.00;;;;5073394;28;20187;-63
2023/04/17 05:06:45;;;;;;;2.60;2.50;;;;;7.40;96316.00;;;;5072687;28;20235;-63
2023/04/17 05:09:14;;;;;;;2.10;1.97;;;;;7.40;96316.00;;;;5073612;28;20546;-63
2023/04/17 05:11:41;;;;;;;3.97;2.27;;;;;7.50;96315.00;;;;5072952;28;20249;-64
2023/04/17 05:14:08;;;;;;;1.53;1.43;;;;;7.60;96323.00;;;;5072410;28;20198;-63
2023/04/17 05:16:36;;;;;;;2.53;2.33;;;;;7.70;96324.00;;;;5072388;28;20273;-63
2023/04/17 05:19:03;;;;;;;1.73;1.63;;;;;7.60;96318.00;;;;5072385;28;20223;-63
2023/04/17 05:21:31;;;;;;;2.37;2.17;;;;;7.60;96318.00;;;;5072376;28;20192;-63
2023/04/17 05:23:59;;;;;;;3.30;2.40;;;;;7.70;96324.00;;;;5072582;28;20238;-63
2023/04/17 05:26:29;;;;;;;3.27;2.13;;;;;7.80;96332.00;;;;5072472;28;20220;-63
2023/04/17 05:28:56;;;;;;;2.53;2.07;;;;;7.80;96324.00;;;;5054258;28;20195;-63
2023/04/17 05:31:23;;;;;;;2.67;2.47;;;;;7.80;96321.00;;;;5072258;28;20223;-63
2023/04/17 05:33:51;;;;;;;4.30;2.70;;;;;7.70;96323.00;;;;5072465;28;20651;-64
2023/04/17 05:36:18;;;;;;;3.30;3.00;;;;;7.70;96320.00;;;;5072165;28;20218;-63
2023/04/17 05:38:46;;;;;;;5.07;2.47;;;;;7.60;96327.00;;;;5073627;28;20241;-63
2023/04/17 05:41:14;;;;;;;2.73;2.57;;;;;7.60;96325.00;;;;5076059;28;20555;-63
2023/04/17 05:43:43;;;;;;;2.50;2.40;;;;;7.50;96329.00;;;;5075998;28;20535;-63
2023/04/17 05:46:10;;;;;;;1.43;1.43;;;;;7.50;96331.00;;;;5057631;28;20699;-63
2023/04/17 05:48:37;;;;;;;1.90;1.80;;;;;7.50;96336.00;;;;5057599;28;20195;-63
2023/04/17 05:51:05;;;;;;;3.03;2.83;;;;;7.50;96325.00;;;;5075502;28;20187;-63
2023/04/17 05:53:32;;;;;;;2.57;1.90;;;;;7.50;96326.00;;;;5075510;28;20612;-64
2023/04/17 05:56:02;;;;;;;3.10;2.57;;;;;7.50;96332.00;;;;5075573;28;20235;-63
2023/04/17 05:58:29;;;;;;;4.20;3.90;;;;;7.50;96325.00;;;;5075456;28;20187;-64
2023/04/17 06:00:58;;;;;;;2.40;2.20;;;;;7.50;96331.00;;;;5075421;28;20229;-64
2023/04/17 06:03:26;;;;;;;3.07;2.73;;;;;7.50;96330.00;;;;5075341;28;20396;-64
2023/04/17 06:05:54;;;;;;;3.25;2.95;;;;;7.50;96329.00;;;;5089789;22;20686;-62
2023/04/17 06:08:21;;;;;;;2.53;2.30;;;;;7.50;96330.00;;;;5037145;28;20817;-62
2023/04/17 06:10:49;;;;;;;2.53;2.33;;;;;7.50;96327.00;;;;5055363;28;20559;-62
2023/04/17 06:13:16;;;;;;;3.13;2.87;;;;;7.50;96329.00;;;;5055261;28;20216;-62
2023/04/17 06:15:44;;;;;;;9.67;2.17;;;;;7.50;96341.00;;;;5055706;28;20242;-60
2023/04/17 06:18:14;;;;;;;7.23;4.27;;;;;7.40;96335.00;;;;5055106;28;20203;-62
2023/04/17 06:20:42;;;;;;;3.53;3.27;;;;;7.50;96335.00;;;;5055455;28;20219;-62
2023/04/17 06:23:09;;;;;;;7.20;4.50;;;;;7.50;96338.00;;;;5034270;28;20188;-62
2023/04/17 06:25:37;;;;;;;3.23;3.00;;;;;7.50;96336.00;;;;5061482;28;20201;-61
2023/04/17 06:28:05;;;;;;;2.47;2.37;;;;;7.50;96339.00;;;;5068495;28;20241;-60
2023/04/17 06:30:32;;;;;;;1.67;1.57;;;;;7.50;96336.00;;;;5064137;28;20218;-61
2023/04/17 06:32:59;;;;;;;1.90;1.80;;;;;7.50;96344.00;;;;5063074;28;20219;-61
2023/04/17 06:35:28;;;;;;;1.90;1.80;;;;;7.50;96342.00;;;;5073329;28;20199;-61
2023/04/17 06:37:55;;;;;;;1.20;1.20;;;;;7.50;96345.00;;;;5066456;28;20216;-62
2023/04/17 06:40:23;;;;;;;3.27;3.07;;;;;7.50;96338.00;;;;5072730;28;20199;-62
2023/04/17 06:42:50;;;;;;;2.50;2.30;;;;;7.50;96344.00;;;;5073027;28;20228;-61
2023/04/17 06:45:18;;;;;;;2.37;2.23;;;;;7.50;96350.00;;;;5073246;28;20203;-61
2023/04/17 06:47:46;;;;;;;2.23;2.13;;;;;7.50;96349.00;;;;5072943;28;20219;-62
2023/04/17 06:50:14;;;;;;;2.37;2.17;;;;;7.60;96341.00;;;;5072460;28;20195;-62
2023/04/17 06:52:43;;;;;;;0.80;0.80;;;;;7.60;96346.00;;;;5072755;28;20219;-62
2023/04/17 06:55:10;;;;;;;1.83;1.73;;;;;7.60;96350.00;;;;5072851;28;20203;-62
2023/04/17 06:57:38;;;;;;;1.77;1.67;;;;;7.60;96352.00;;;;5072807;28;20223;-63
2023/04/17 07:00:06;;;;;;;2.07;1.97;;;;;7.70;96353.00;;;;5072710;28;20203;-62
2023/04/17 07:02:34;;;;;;;1.63;1.53;;;;;7.70;96342.00;;;;5072749;28;20195;-61
2023/04/17 07:05:01;;;;;;;1.53;1.43;;;;;7.90;96348.00;;;;5054773;28;20701;-62
2023/04/17 07:07:29;;;;;;;2.27;2.17;;;;;7.80;96361.00;;;;5072374;28;20238;-61
2023/04/17 07:09:58;;;;;;;1.63;1.53;;;;;7.90;96351.00;;;;5071418;28;20206;-62
2023/04/17 07:12:26;;;;;;;1.73;1.63;;;;;7.90;96358.00;;;;5072405;28;20223;-61
2023/04/17 07:14:53;;;;;;;1.30;1.23;;;;;7.90;96356.00;;;;5072451;28;20230;-62
2023/04/17 07:17:21;;;;;;;1.13;1.13;;;;;7.90;96356.00;;;;5072410;28;20578;-62
2023/04/17 07:19:48;;;;;;;2.83;1.80;;;;;7.80;96363.00;;;;5066161;28;20231;-61
2023/04/17 07:22:16;;;;;;;2.63;2.43;;;;;7.90;96364.00;;;;5057397;28;20203;-62
2023/04/17 07:24:43;;;;;;;1.90;1.77;;;;;7.90;96362.00;;;;5052344;28;20196;-62
2023/04/17 07:27:12;;;;;;;1.43;1.40;;;;;8.00;96364.00;;;;5052228;28;20211;-62
2023/04/17 07:29:39;;;;;;;1.83;1.73;;;;;8.00;96356.00;;;;5052277;28;20196;-62
2023/04/17 07:32:07;;;;;;;0.87;0.87;;;;;7.90;96367.00;;;;5052126;28;20216;-62
2023/04/17 07:34:36;;;;;;;1.40;1.40;;;;;7.90;96361.00;;;;5034199;28;20199;-62
2023/04/17 07:37:03;;;;;;;1.20;1.20;;;;;7.90;96369.00;;;;5051995;28;20303;-61
2023/04/17 07:39:31;;;;;;;1.23;1.23;;;;;7.80;96368.00;;;;5069041;28;20195;-61
2023/04/17 07:41:58;;;;;;;1.13;1.13;;;;;7.90;96368.00;;;;5072027;28;20191;-62
2023/04/17 07:44:27;;;;;;;1.53;1.43;;;;;7.90;96372.00;;;;5071887;28;20199;-62
2023/04/17 07:46:54;;;;;;;1.77;1.67;;;;;8.00;96369.00;;;;5071950;28;20215;-62
2023/04/17 07:49:22;;;;;;;2.87;1.77;;;;;7.90;96366.00;;;;5071916;28;20666;-62
2023/04/17 07:51:49;;;;;;;2.27;2.17;;;;;8.00;96369.00;;;;5071790;28;20196;-62
2023/04/17 07:54:17;;;;;;;1.67;1.60;;;;;8.00;96374.00;;;;5071861;28;20622;-62
2023/04/17 07:56:46;;;;;;;1.20;1.20;;;;;8.10;96380.00;;;;5071677;28;20225;-62
2023/04/17 07:59:13;;;;;;;1.33;1.30;;;;;8.20;96382.00;;;;5065982;28;20200;-62
2023/04/17 08:01:42;;;;;;;1.63;1.53;;;;;8.30;96380.00;;;;5047351;28;20206;-62
2023/04/17 08:04:09;;;;;;;1.20;1.20;;;;;8.30;96376.00;;;;5052748;28;20205;-62
2023/04/17 08:06:37;;;;;;;1.57;1.47;;;;;8.30;96380.00;;;;5051980;28;20220;-62
2023/04/17 08:09:05;;;;;;;3.33;1.80;;;;;8.30;96386.00;;;;5052933;28;20295;-63
2023/04/17 08:11:33;;;;;;;0.90;0.90;;;;;8.30;96390.00;;;;5034595;28;20200;-62
2023/04/17 08:14:00;;;;;;;1.03;1.03;;;;;8.30;96391.00;;;;5052380;28;20266;-62
2023/04/17 08:16:28;;;;;;;1.33;1.23;;;;;8.30;96383.00;;;;5052129;28;20223;-62
2023/04/17 08:18:56;;;;;;;1.47;1.37;;;;;8.30;96392.00;;;;5034636;28;20207;-62
2023/04/17 08:21:25;;;;;;;2.40;2.03;;;;;8.30;96389.00;;;;5052522;28;20208;-62
2023/04/17 08:23:52;;;;;;;1.53;1.50;;;;;8.30;96385.00;;;;5052326;28;20224;-61
2023/04/17 08:26:20;;;;;;;0.80;0.80;;;;;8.20;96389.00;;;;5052136;28;20216;-61
2023/04/17 08:28:47;;;;;;;1.07;0.90;;;;;8.20;96393.00;;;;5052544;28;20279;-62
2023/04/17 08:31:15;;;;;;;1.47;1.37;;;;;8.30;96396.00;;;;5034387;28;20203;-62
2023/04/17 08:33:42;;;;;;;1.33;1.33;;;;;8.30;96393.00;;;;5052233;28;20247;-62
2023/04/17 08:36:11;;;;;;;1.77;1.67;;;;;8.30;96393.00;;;;5051992;28;20575;-62
2023/04/17 08:38:39;;;;;;;1.53;1.43;;;;;8.30;96400.00;;;;5034396;28;20226;-62
2023/04/17 08:41:12;;;;;;;1.23;1.23;;;;;8.30;96392.00;;;;5052305;28;20564;-62
2023/04/17 08:43:41;;;;;;;0.90;0.90;;;;;8.40;96395.00;;;;5052131;28;20195;-62
2023/04/17 08:46:09;;;;;;;1.70;1.60;;;;;8.40;96392.00;;;;5052174;28;20220;-62
2023/04/17 08:48:36;;;;;;;1.47;1.43;;;;;8.40;96397.00;;;;5034079;28;20222;-62
2023/04/17 08:51:04;;;;;;;1.67;1.53;;;;;8.30;96396.00;;;;5052072;28;20211;-61
2023/04/17 08:53:33;;;;;;;1.33;1.33;;;;;8.30;96411.00;;;;5052050;28;20345;-62
2023/04/17 08:56:05;;;;;;;1.10;1.10;;;;;8.30;96402.00;;;;5052138;28;20196;-62
2023/04/17 08:58:33;;;;;;;2.00;1.90;;;;;8.30;96404.00;;;;5048132;28;20529;-61
2023/04/17 09:01:09;;;;;;;0.80;0.80;;;;;8.40;96402.00;;;;5051969;28;20200;-61
2023/04/17 09:03:43;;;;;;;0.87;0.87;;;;;8.50;96407.00;;;;5052132;28;20554;-62
2023/04/17 09:06:11;;;;;;;2.37;1.57;;;;;8.50;96409.00;;;;5033891;28;20694;-62
2023/04/17 09:08:55;;;;;;;1.63;1.53;;;;;8.70;96401.00;;;;5052018;28;20200;-62
2023/04/17 09:11:22;;;;;;;1.63;1.53;;;;;8.80;96402.00;;;;5049218;28;20526;-62
2023/04/17 09:13:50;;;;;;;1.53;1.47;;;;;8.70;96404.00;;;;5037232;28;20223;-62
2023/04/17 09:16:18;;;;;;;1.03;1.03;;;;;8.70;96395.00;;;;5037578;28;20243;-62
2023/04/17 09:18:46;;;;;;;1.73;1.43;;;;;8.70;96405.00;;;;5055564;28;20258;-60
2023/04/17 09:21:17;;;;;;;1.63;1.53;;;;;8.70;96409.00;;;;5055727;28;20207;-60
2023/04/17 09:23:51;;;;;;;1.73;1.63;;;;;8.60;96414.00;;;;5055204;28;20192;-60
2023/04/17 09:26:20;;;;;;;2.67;2.03;;;;;8.60;96406.00;;;;5055518;28;20247;-63
2023/04/17 09:29:03;;;;;;;2.10;1.30;;;;;8.60;96414.00;;;;5055253;28;20659;-63
2023/04/17 09:31:33;;;;;;;1.80;1.70;;;;;8.60;96403.00;;;;5052144;28;20188;-60
2023/04/17 09:34:02;;;;;;;1.90;1.80;;;;;8.70;96413.00;;;;5055153;28;20303;-60
2023/04/17 09:36:30;;;;;;;0.90;0.90;;;;;8.80;96405.00;;;;5037154;28;20228;-60
2023/04/17 09:39:02;;;;;;;1.23;1.13;;;;;8.80;96408.00;;;;5055201;28;20192;-61
2023/04/17 09:41:31;;;;;;;1.40;1.30;;;;;8.80;96414.00;;;;5055339;28;20188;-60
2023/04/17 09:44:04;;;;;;;1.03;1.03;;;;;8.80;96414.00;;;;5054722;28;20196;-61
2023/04/17 09:46:37;;;;;;;1.63;1.53;;;;;8.80;96415.00;;;;5055430;28;20364;-61
2023/04/17 09:49:10;;;;;;;1.57;1.47;;;;;8.80;96417.00;;;;5054878;28;20242;-62
2023/04/17 09:51:38;;;;;;;1.97;1.50;;;;;8.90;96419.00;;;;5055284;28;20188;-62
2023/04/17 09:54:09;;;;;;;1.20;1.20;;;;;8.90;96412.00;;;;5054673;28;20227;-62
2023/04/17 09:56:37;;;;;;;0.93;0.93;;;;;9.00;96413.00;;;;5052339;28;20224;-62
2023/04/17 09:59:06;;;;;;;1.07;1.07;;;;;8.90;96421.00;;;;5053999;28;20196;-62
2023/04/17 10:01:34;;;;;;;1.00;1.00;;;;;8.90;96424.00;;;;5053886;28;20246;-60
2023/04/17 10:04:02;;;;;;;2.10;1.97;;;;;8.80;96418.00;;;;5052797;28;20238;-60
2023/04/17 10:06:31;;;;;;;0.70;0.70;;;;;8.80;96413.00;;;;5053335;28;20273;-60
2023/04/17 10:08:59;;;;;;;0.70;0.70;;;;;8.80;96413.00;;;;5054071;28;20223;-62
2023/04/17 10:11:30;;;;;;;0.80;0.80;;;;;8.70;96411.00;;;;5053827;28;20211;-61
2023/04/17 10:14:08;;;;;;;1.20;1.20;;;;;8.80;96407.00;;;;5035716;28;20699;-61
2023/04/17 10:16:36;;;;;;;1.40;1.30;;;;;9.10;96410.00;;;;5053637;28;20230;-61
2023/04/17 10:19:29;;;;;;;11.03;1.13;;;;;9.30;96403.00;;;;5053710;28;20203;-62
2023/04/17 10:22:33;;;;;;;1.73;1.10;;;;;9.70;96402.00;;;;5042892;28;20216;-62
2023/04/17 10:25:21;;;;;;;1.00;1.00;;;;;10.10;96392.00;;;;5052754;28;20275;-62
2023/04/17 10:27:54;;;;;;;0.90;0.90;;;;;10.40;96391.00;;;;5053419;28;20235;-62
2023/04/17 10:30:23;;;;;;;0.83;0.83;;;;;10.80;96383.00;;;;5049378;28;20192;-62
2023/04/17 10:33:24;;;;;;;1.50;1.40;;;;;11.10;96390.00;;;;5053540;28;20656;-62
2023/04/17 10:35:52;;;;;;;0.70;0.70;;;;;11.30;96389.00;;;;5040718;28;20633;-60
2023/04/17 10:38:34;;;;;;;1.70;1.20;;;;;11.30;96396.00;;;;5030885;28;20196;-60
2023/04/17 10:41:03;;;;;;;1.27;1.27;;;;;11.20;96393.00;;;;5053515;28;20547;-60
2023/04/17 10:43:32;;;;;;;0.83;0.83;;;;;10.90;96388.00;;;;5053121;28;20203;-61
2023/04/17 10:46:05;;;;;;;0.60;0.60;;;;;10.80;96395.00;;;;5053044;28;20196;-59
2023/04/17 10:48:34;;;;;;;1.60;1.50;;;;;10.50;96389.00;;;;5053050;28;20200;-57
2023/04/17 10:51:17;;;;;;;1.97;1.87;;;;;10.40;96390.00;;;;5053002;28;20203;-60
2023/04/17 10:53:46;;;;;;;1.83;1.73;;;;;10.10;96392.00;;;;5030533;28;20212;-59
2023/04/17 10:56:19;;;;;;;1.60;1.50;;;;;10.20;96388.00;;;;5052861;28;20211;-59
2023/04/17 10:59:00;;;;;;;1.43;1.33;;;;;10.10;96383.00;;;;5052850;28;20227;-58
2023/04/17 11:01:30;;;;;;;1.67;1.57;;;;;10.00;96386.00;;;;5052932;28;20271;-59
2023/04/17 11:03:59;;;;;;;0.77;0.77;;;;;10.10;96376.00;;;;5052840;28;20648;-59
2023/04/17 11:06:28;;;;;;;1.43;1.13;;;;;10.40;96381.00;;;;5051515;28;20235;-60
2023/04/17 11:08:56;;;;;;;0.80;0.80;;;;;10.60;96373.00;;;;5052674;28;20207;-60
2023/04/17 11:11:24;;;;;;;2.20;1.10;;;;;11.00;96383.00;;;;5052638;28;20231;-60
2023/04/17 11:13:52;;;;;;;1.80;1.47;;;;;11.10;96382.00;;;;5052803;28;20224;-61
2023/04/17 11:16:21;;;;;;;1.67;1.60;;;;;11.10;96378.00;;;;5052489;28;20223;-61
2023/04/17 11:18:50;;;;;;;1.00;1.00;;;;;11.10;96378.00;;;;5052691;28;20196;-60
2023/04/17 11:21:18;;;;;;;1.67;1.57;;;;;10.90;96375.00;;;;5034883;28;20200;-60
2023/04/17 11:23:51;;;;;;;1.03;0.97;;;;;11.00;96371.00;;;;5048032;28;20537;-61
2023/04/17 11:26:19;;;;;;;1.10;1.10;;;;;11.20;96371.00;;;;5052306;28;20219;-60
2023/04/17 11:28:47;;;;;;;1.33;1.33;;;;;11.60;96352.00;;;;5052251;28;20207;-60
2023/04/17 11:31:21;;;;;;;1.40;1.00;;;;;12.40;96359.00;;;;5052268;28;20559;-60
2023/04/17 11:33:49;;;;;;;1.17;1.17;;;;;12.90;96362.00;;;;5052211;28;20203;-61
2023/04/17 11:36:16;;;;;;;0.93;0.93;;;;;13.40;96354.00;;;;5062509;28;20216;-61
2023/04/17 11:38:47;;;;;;;1.00;1.00;;;;;13.70;96353.00;;;;5069465;28;20278;-60
2023/04/17 11:41:15;;;;;;;0.60;0.60;;;;;13.60;96345.00;;;;5072127;28;20197;-60
2023/04/17 11:43:43;;;;;;;1.00;1.00;;;;;14.00;96345.00;;;;5072054;28;20270;-60
2023/04/17 11:46:11;;;;;;;0.80;0.80;;;;;14.40;96349.00;;;;5071977;28;21842;-60
2023/04/17 11:48:40;;;;;;;0.87;0.87;;;;;14.50;96352.00;;;;5071912;28;20207;-60
2023/04/17 11:51:07;;;;;;;1.23;1.20;;;;;14.30;96359.00;;;;5071899;28;20246;-59
2023/04/17 11:53:36;;;;;;;1.07;1.07;;;;;14.00;96365.00;;;;5071643;28;20223;-59
2023/04/17 11:56:14;;;;;;;0.60;0.60;;;;;13.50;96356.00;;;;5055275;28;20246;-60
2023/04/17 11:58:48;;;;;;;0.60;0.60;;;;;13.00;96360.00;;;;5059682;28;20195;-60
2023/04/17 12:01:17;;;;;;;1.57;1.47;;;;;12.50;96373.00;;;;5062276;28;20210;-60
2023/04/17 12:03:47;;;;;;;0.97;0.97;;;;;12.10;96368.00;;;;5057952;28;20198;-60
2023/04/17 12:06:16;;;;;;;0.70;0.70;;;;;11.90;96370.00;;;;5072515;28;20231;-59
2023/04/17 12:08:46;;;;;;;0.93;0.93;;;;;11.60;96370.00;;;;5070075;22;20261;-64
2023/04/17 12:11:23;;;;;;;0.70;0.70;;;;;11.40;96374.00;;;;5050033;28;20227;-65
2023/04/17 12:13:51;;;;;;;1.60;1.50;;;;;11.40;96379.00;;;;5049569;28;20239;-64
2023/04/17 12:16:18;;;;;;;0.70;0.70;;;;;11.30;96371.00;;;;5051475;28;20199;-67
2023/04/17 12:18:47;;;;;;;0.73;0.73;;;;;11.30;96378.00;;;;5051260;28;20219;-65
2023/04/17 12:21:14;;;;;;;0.60;0.60;;;;;11.50;96378.00;;;;5034039;28;20290;-64
2023/04/17 12:23:42;;;;;;;1.20;1.20;;;;;11.30;96373.00;;;;5031318;28;20201;-65
2023/04/17 12:26:10;;;;;;;0.73;0.73;;;;;11.40;96368.00;;;;5031339;28;20292;-66
2023/04/17 12:28:37;;;;;;;3.70;2.20;;;;;11.50;96375.00;;;;5031191;28;20216;-65
2023/04/17 12:31:05;;;;;;;1.70;1.60;;;;;11.30;96380.00;;;;5013581;28;20196;-65
2023/04/17 12:33:33;;;;;;;2.73;2.53;;;;;11.40;96375.00;;;;5013545;28;20225;-65